Time;durP1;ratioP1;P1;durP2;ratioP2;P2;SDS_P1;SDS_P2;PMS_P1;PMS_P2;Temp;Humidity;BMP_temperature;BMP_pressure;BME280_temperature;BME280_humidity;BME280_pressure;Samples;Min_cycle;Max_cycle;Signal;HPM_P1;HPM_P2
2021/04/17 00:02:24;;;;;;;5.00;4.58;;;;;;;11.84;57.24;101930.77;1693034;85;21175;-51
2021/04/17 00:04:52;;;;;;;5.45;4.70;;;;;;;11.72;57.43;101933.48;1691337;85;21223;-52
2021/04/17 00:07:22;;;;;;;5.22;4.75;;;;;;;11.63;57.79;101934.81;1692171;85;21316;-48
2021/04/17 00:09:50;;;;;;;4.90;4.42;;;;;;;11.63;57.76;101930.90;1701748;80;21203;-48
2021/04/17 00:12:20;;;;;;;5.47;4.92;;;;;;;11.66;57.57;101927.89;1768865;80;21187;-47
2021/04/17 00:14:49;;;;;;;5.83;4.50;;;;;;;11.72;57.46;101925.23;1774172;80;21600;-51
2021/04/17 00:17:19;;;;;;;7.37;4.53;;;;;;;11.79;57.20;101931.23;1775223;80;21124;-53
2021/04/17 00:19:51;;;;;;;5.28;4.65;;;;;;;11.82;57.02;101929.48;1775216;80;21108;-49
2021/04/17 00:22:19;;;;;;;4.78;4.22;;;;;;;11.84;57.00;101933.38;1770830;80;21159;-47
2021/04/17 00:24:47;;;;;;;4.80;4.30;;;;;;;11.87;56.79;101937.28;1772075;80;21148;-48
2021/04/17 00:27:15;;;;;;;4.72;4.33;;;;;;;11.88;56.62;101933.78;1770382;80;21147;-51
2021/04/17 00:29:43;;;;;;;5.05;4.62;;;;;;;11.88;56.42;101932.47;1765475;80;21139;-49
2021/04/17 00:32:12;;;;;;;5.40;4.90;;;;;;;11.89;56.43;101935.52;1771255;80;21289;-49
2021/04/17 00:34:40;;;;;;;6.42;5.83;;;;;;;11.89;56.33;101935.52;1769718;80;21164;-51
2021/04/17 00:37:09;;;;;;;5.15;4.67;;;;;;;11.88;55.95;101933.78;1756410;80;21352;-49
2021/04/17 00:39:37;;;;;;;6.05;4.60;;;;;;;11.88;55.74;101935.08;1767916;80;21136;-47
2021/04/17 00:42:06;;;;;;;5.42;4.92;;;;;;;11.87;55.74;101935.52;1767404;80;21124;-48
2021/04/17 00:44:35;;;;;;;5.75;5.25;;;;;;;11.86;55.65;101932.93;1768729;80;21188;-50
2021/04/17 00:47:05;;;;;;;5.50;5.00;;;;;;;11.86;55.50;101938.14;1764723;80;21152;-48
2021/04/17 00:49:34;;;;;;;5.70;5.03;;;;;;;11.84;55.15;101942.51;1765911;80;21184;-51
2021/04/17 00:52:03;;;;;;;4.65;4.25;;;;;;;11.82;54.95;101948.17;1760820;80;21274;-50
2021/04/17 00:54:31;;;;;;;5.40;4.70;;;;;;;11.75;54.93;101951.69;1747211;80;21168;-51
2021/04/17 00:57:00;;;;;;;5.08;4.45;;;;;;;11.70;54.89;101950.88;1766403;80;21128;-47
2021/04/17 00:59:27;;;;;;;5.08;4.58;;;;;;;11.67;54.77;101956.10;1766352;80;21136;-48
2021/04/17 01:01:55;;;;;;;4.58;4.17;;;;;;;11.63;54.88;101957.84;1766662;80;21325;-51
2021/04/17 01:04:32;;;;;;;5.97;5.47;;;;;;;11.61;54.89;101954.81;1766117;80;21159;-46
2021/04/17 01:07:27;;;;;;;5.40;4.60;;;;;;;11.57;55.10;101947.89;1766224;80;21180;-50
2021/04/17 01:10:07;;;;;;;5.58;5.08;;;;;;;11.53;55.16;101946.18;1765031;80;21151;-49
2021/04/17 01:12:39;;;;;;;5.15;4.65;;;;;;;11.51;55.06;101949.23;1706570;83;21226;-52
2021/04/17 01:15:08;;;;;;;5.12;4.62;;;;;;;11.51;54.97;101953.14;1706829;83;21182;-46
2021/04/17 01:17:36;;;;;;;4.72;4.28;;;;;;;11.50;54.88;101950.97;1706912;83;21289;-47
2021/04/17 01:20:19;;;;;;;5.22;4.72;;;;;;;11.47;54.72;101952.31;1692265;83;21352;-51
2021/04/17 01:23:04;;;;;;;4.95;4.55;;;;;;;11.43;54.70;101951.47;1693122;83;21151;-49
2021/04/17 01:26:01;;;;;;;5.05;4.53;;;;;;;11.45;54.74;101947.55;1810063;79;23390;-52
2021/04/17 01:28:34;;;;;;;4.97;4.55;;;;;;;11.38;54.75;101957.13;1777295;80;21286;-47
2021/04/17 01:31:04;;;;;;;6.37;5.25;;;;;;;11.38;54.63;101958.44;1772625;80;21167;-48
2021/04/17 01:33:35;;;;;;;5.92;5.25;;;;;;;11.35;54.71;101956.30;1776641;80;21192;-51
2021/04/17 01:36:05;;;;;;;5.75;5.22;;;;;;;11.32;54.61;101957.17;1779382;80;21290;-48
2021/04/17 01:38:35;;;;;;;5.37;4.87;;;;;;;11.29;54.74;101954.57;1775784;80;21161;-47
2021/04/17 01:41:12;;;;;;;6.10;4.53;;;;;;;11.25;54.88;101947.64;1781394;80;21136;-49
2021/04/17 01:43:40;;;;;;;5.20;4.70;;;;;;;11.24;54.84;101949.84;1676679;82;21191;-48
2021/04/17 01:46:13;;;;;;;5.10;4.70;;;;;;;11.23;54.81;101948.09;1677444;85;21243;-48
2021/04/17 01:48:46;;;;;;;6.17;5.58;;;;;;;11.27;54.70;101946.36;1771652;79;22959;-52
2021/04/17 01:51:15;;;;;;;5.87;5.28;;;;;;;11.21;54.53;101955.05;1738089;82;21164;-47
2021/04/17 01:53:43;;;;;;;5.67;4.97;;;;;;;11.18;54.48;101951.17;1735603;82;21137;-51
2021/04/17 01:56:12;;;;;;;5.40;4.90;;;;;;;11.16;54.40;101951.63;1710775;82;21612;-47
2021/04/17 01:58:41;;;;;;;5.03;4.60;;;;;;;11.14;54.40;101950.77;1741430;82;21141;-47
2021/04/17 02:01:10;;;;;;;5.65;5.15;;;;;;;11.13;54.31;101951.63;1736927;82;21184;-51
2021/04/17 02:03:38;;;;;;;5.85;5.35;;;;;;;11.11;54.30;101949.46;1737789;82;21160;-50
2021/04/17 02:06:06;;;;;;;5.95;5.45;;;;;;;11.10;54.27;101949.05;1737023;82;21196;-51
2021/04/17 02:08:36;;;;;;;5.72;5.20;;;;;;;11.09;54.14;101953.81;1736863;82;21215;-49
2021/04/17 02:11:06;;;;;;;7.17;5.50;;;;;;;11.05;54.07;101949.49;1742420;82;21585;-49
2021/04/17 02:13:35;;;;;;;7.25;5.08;;;;;;;11.03;54.04;101949.94;1732049;82;21152;-52
2021/04/17 02:16:16;;;;;;;5.80;5.30;;;;;;;11.01;54.06;101946.48;1738597;82;21141;-47
2021/04/17 02:18:52;;;;;;;5.83;5.22;;;;;;;10.99;54.04;101951.25;1713542;82;21153;-47
2021/04/17 02:21:25;;;;;;;6.97;6.28;;;;;;;10.96;54.08;101954.77;1728485;82;21141;-49
2021/04/17 02:23:53;;;;;;;6.12;5.47;;;;;;;10.94;54.26;101959.08;1743419;82;21192;-47
2021/04/17 02:26:21;;;;;;;8.13;5.65;;;;;;;10.92;54.26;101955.62;1735878;82;21164;-48
2021/04/17 02:28:49;;;;;;;6.25;5.30;;;;;;;10.88;54.21;101955.20;1738266;82;21148;-46
2021/04/17 02:31:17;;;;;;;5.55;5.05;;;;;;;10.85;54.15;101959.14;1740607;82;21148;-51
2021/04/17 02:33:45;;;;;;;7.08;6.05;;;;;;;10.83;54.23;101966.09;1734608;82;21148;-47
2021/04/17 02:36:13;;;;;;;5.90;5.40;;;;;;;10.81;54.42;101962.63;1741959;82;21173;-51
2021/04/17 02:38:41;;;;;;;6.78;6.17;;;;;;;10.80;54.36;101966.08;1720784;82;21113;-47
2021/04/17 02:41:11;;;;;;;6.60;5.90;;;;;;;10.80;54.36;101970.45;1738123;82;21731;-47
2021/04/17 02:43:41;;;;;;;7.03;6.05;;;;;;;10.78;54.29;101971.73;1738710;82;21750;-48
2021/04/17 02:46:10;;;;;;;6.40;5.80;;;;;;;10.76;54.10;101969.57;1688607;84;21243;-48
2021/04/17 02:48:38;;;;;;;6.22;5.45;;;;;;;10.72;53.89;101975.66;1669001;84;21212;-52
2021/04/17 02:51:07;;;;;;;6.70;6.00;;;;;;;10.67;54.00;101974.83;1693453;84;21192;-52
2021/04/17 02:53:36;;;;;;;6.45;5.85;;;;;;;10.65;54.06;101977.87;1700088;84;21314;-51
2021/04/17 02:56:05;;;;;;;7.35;6.65;;;;;;;10.63;54.16;101980.91;1681537;84;21618;-47
2021/04/17 02:58:33;;;;;;;7.08;6.37;;;;;;;10.59;54.32;101977.89;1692360;84;21232;-47
2021/04/17 03:01:01;;;;;;;8.60;6.65;;;;;;;10.58;54.42;101970.94;1692690;84;21141;-47
2021/04/17 03:03:31;;;;;;;6.78;6.12;;;;;;;10.57;54.26;101975.72;1689234;84;21201;-48
2021/04/17 03:05:59;;;;;;;6.55;5.70;;;;;;;10.55;54.35;101978.77;1693622;84;21331;-50
2021/04/17 03:08:27;;;;;;;7.47;6.25;;;;;;;10.55;54.36;101982.67;1695127;84;21334;-53
2021/04/17 03:10:55;;;;;;;6.87;6.28;;;;;;;10.54;54.28;101980.49;1691686;84;21172;-50
2021/04/17 03:13:24;;;;;;;7.80;6.53;;;;;;;10.55;54.11;101982.67;1692169;84;21141;-50
2021/04/17 03:15:51;;;;;;;10.85;7.60;;;;;;;10.51;54.28;101982.21;1694127;84;21173;-47
2021/04/17 03:18:21;;;;;;;7.60;6.42;;;;;;;10.48;54.55;101975.30;1694992;84;21176;-50
2021/04/17 03:20:49;;;;;;;7.35;6.65;;;;;;;10.45;54.74;101975.30;1695070;84;21208;-51
2021/04/17 03:23:17;;;;;;;6.40;5.72;;;;;;;10.45;54.71;101980.50;1695317;84;21299;-52
2021/04/17 03:25:45;;;;;;;6.62;5.85;;;;;;;10.45;54.64;101977.02;1694999;84;21207;-50
2021/04/17 03:28:13;;;;;;;7.95;6.15;;;;;;;10.47;54.68;101973.98;1693766;84;21212;-47
2021/04/17 03:30:41;;;;;;;7.92;6.60;;;;;;;10.47;54.71;101972.68;1692077;84;21137;-50
2021/04/17 03:33:09;;;;;;;7.85;6.50;;;;;;;10.47;54.71;101973.55;1692065;84;21177;-48
2021/04/17 03:35:37;;;;;;;7.20;6.50;;;;;;;10.48;54.70;101977.03;1694180;84;21711;-48
2021/04/17 03:38:06;;;;;;;6.85;6.15;;;;;;;10.47;54.71;101981.36;1693842;84;21169;-49
2021/04/17 03:40:34;;;;;;;8.55;6.75;;;;;;;10.47;54.90;101977.88;1693465;84;21629;-51
2021/04/17 03:43:01;;;;;;;7.15;5.87;;;;;;;10.48;54.99;101981.81;1727971;82;21286;-46
2021/04/17 03:45:31;;;;;;;11.30;6.03;;;;;;;10.50;54.84;101983.09;1743572;82;21180;-47
2021/04/17 03:47:59;;;;;;;7.12;6.45;;;;;;;10.53;54.65;101979.20;1722339;82;21173;-47
2021/04/17 03:50:27;;;;;;;7.00;6.15;;;;;;;10.53;54.68;101984.41;1723807;82;21318;-48
2021/04/17 03:52:55;;;;;;;8.15;7.12;;;;;;;10.53;54.49;101990.91;1725251;82;21177;-49
2021/04/17 03:55:23;;;;;;;8.35;7.22;;;;;;;10.54;54.52;101993.50;1724166;82;21145;-47
2021/04/17 03:57:51;;;;;;;6.53;5.95;;;;;;;10.55;54.61;101989.17;1726596;82;21185;-46
2021/04/17 04:00:20;;;;;;;6.95;6.20;;;;;;;10.56;54.69;101988.29;1722035;82;21173;-47
2021/04/17 04:02:48;;;;;;;10.40;7.03;;;;;;;10.59;54.61;101996.11;1729493;82;21157;-47
2021/04/17 04:05:16;;;;;;;8.08;6.80;;;;;;;10.63;54.58;102000.44;1718590;82;21610;-48
2021/04/17 04:07:47;;;;;;;7.22;6.53;;;;;;;10.64;54.36;102003.02;1730689;82;21554;-51
2021/04/17 04:10:15;;;;;;;10.55;7.10;;;;;;;10.66;54.29;102005.61;1720743;82;21145;-48
2021/04/17 04:12:44;;;;;;;7.67;6.87;;;;;;;10.68;54.39;102006.48;1721102;82;21163;-53
2021/04/17 04:15:13;;;;;;;7.55;6.75;;;;;;;10.69;54.42;102008.23;1723866;82;21589;-47
2021/04/17 04:17:41;;;;;;;12.30;6.62;;;;;;;10.72;54.53;102008.20;1727871;81;21145;-48
2021/04/17 04:20:11;;;;;;;10.15;7.00;;;;;;;10.76;54.58;102011.69;1720994;82;21197;-46
2021/04/17 04:22:39;;;;;;;8.05;7.17;;;;;;;10.81;54.61;102016.00;1727583;82;21202;-47
2021/04/17 04:25:08;;;;;;;8.78;6.87;;;;;;;10.84;54.69;102020.34;1724251;82;21157;-51
2021/04/17 04:27:37;;;;;;;11.05;7.20;;;;;;;10.86;54.59;102024.65;1726940;82;21129;-47
2021/04/17 04:30:07;;;;;;;7.83;6.95;;;;;;;10.88;54.72;102022.91;1717799;82;21153;-48
2021/04/17 04:32:34;;;;;;;8.65;6.83;;;;;;;10.92;54.87;102023.78;1723765;82;21578;-47
2021/04/17 04:35:05;;;;;;;7.47;6.78;;;;;;;10.97;54.96;102024.20;1727459;82;21221;-47
2021/04/17 04:37:34;;;;;;;7.08;6.42;;;;;;;11.01;54.95;102019.41;1720599;82;21201;-50
2021/04/17 04:40:05;;;;;;;7.50;6.83;;;;;;;11.07;55.01;102019.38;1730853;82;21117;-47
2021/04/17 04:42:33;;;;;;;7.47;6.78;;;;;;;11.11;54.93;102022.40;1725169;82;21201;-48
2021/04/17 04:45:04;;;;;;;7.60;6.90;;;;;;;11.14;55.03;102026.31;1719892;82;21145;-49
2021/04/17 04:47:33;;;;;;;;;;;;;;;11.19;55.07;102032.81;1738917;81;21152;-49
2021/04/17 04:50:04;;;;;;;9.58;6.75;;;;;;;11.21;55.22;102029.30;1739118;82;20124;-47
2021/04/17 04:52:32;;;;;;;7.15;6.45;;;;;;;11.25;55.38;102027.58;1739840;82;21136;-51
2021/04/17 04:55:00;;;;;;;8.10;7.25;;;;;;;11.31;55.50;102024.48;1735745;82;21315;-47
2021/04/17 04:57:28;;;;;;;7.50;6.75;;;;;;;11.37;55.54;102024.45;1743207;82;21294;-47
2021/04/17 04:59:55;;;;;;;7.78;6.83;;;;;;;11.44;55.49;102020.95;1732139;82;21554;-50
2021/04/17 05:02:23;;;;;;;8.13;7.33;;;;;;;11.50;55.39;102023.11;1744205;82;21557;-47
2021/04/17 05:04:52;;;;;;;10.03;8.08;;;;;;;11.55;55.26;102021.33;1735172;81;21164;-52
2021/04/17 05:07:20;;;;;;;8.15;7.35;;;;;;;11.60;55.24;102026.09;1739338;82;21185;-49
2021/04/17 05:09:48;;;;;;;7.45;6.70;;;;;;;11.65;55.23;102029.09;1740374;82;21121;-52
2021/04/17 05:12:16;;;;;;;7.75;6.97;;;;;;;11.71;55.03;102026.91;1734884;80;21569;-48
2021/04/17 05:14:45;;;;;;;7.30;6.60;;;;;;;11.78;54.85;102028.61;1736421;82;21105;-48
2021/04/17 05:17:15;;;;;;;7.58;6.62;;;;;;;11.86;54.62;102029.42;1739758;81;21148;-48
2021/04/17 05:19:43;;;;;;;6.85;6.12;;;;;;;11.89;54.53;102032.87;1740379;82;21192;-51
2021/04/17 05:22:11;;;;;;;7.55;5.97;;;;;;;11.94;54.42;102032.84;1734968;82;21164;-51
2021/04/17 05:24:39;;;;;;;7.75;6.00;;;;;;;11.99;54.45;102029.78;1735830;82;21149;-48
2021/04/17 05:27:08;;;;;;;7.28;6.58;;;;;;;12.06;54.36;102032.75;1744539;82;21117;-53
2021/04/17 05:29:37;;;;;;;6.60;6.00;;;;;;;12.13;54.17;102025.31;1733184;82;21301;-48
2021/04/17 05:32:07;;;;;;;9.50;6.58;;;;;;;12.22;54.01;102030.44;1740978;82;21553;-51
2021/04/17 05:34:35;;;;;;;7.17;6.47;;;;;;;12.29;54.00;102026.91;1737944;82;21581;-51
2021/04/17 05:37:04;;;;;;;6.78;6.12;;;;;;;12.37;53.88;102038.16;1743154;82;21196;-47
2021/04/17 05:39:31;;;;;;;6.75;5.78;;;;;;;12.45;53.93;102033.72;1739025;82;21563;-47
2021/04/17 05:41:59;;;;;;;12.53;7.12;;;;;;;12.63;54.40;102032.23;1738367;82;21144;-48
2021/04/17 05:44:27;;;;;;;8.73;7.50;;;;;;;12.99;54.15;102034.48;1744883;82;21315;-51
2021/04/17 05:46:57;;;;;;;8.70;6.92;;;;;;;13.39;53.27;102035.34;1734476;82;21151;-47
2021/04/17 05:49:26;;;;;;;6.90;6.20;;;;;;;13.72;52.88;102036.19;1732259;82;21160;-48
2021/04/17 05:51:54;;;;;;;7.45;6.47;;;;;;;13.97;52.19;102036.69;1744605;82;21160;-52
2021/04/17 05:54:22;;;;;;;8.13;7.33;;;;;;;14.14;51.77;102043.37;1734302;82;21164;-47
2021/04/17 05:56:50;;;;;;;8.75;6.87;;;;;;;14.30;51.64;102039.64;1739592;82;21168;-51
2021/04/17 05:59:18;;;;;;;6.90;6.25;;;;;;;14.51;51.51;102045.83;1739149;82;21152;-50
2021/04/17 06:01:47;;;;;;;7.45;6.62;;;;;;;14.80;50.99;102041.81;1744201;82;21181;-47
2021/04/17 06:04:15;;;;;;;8.05;6.47;;;;;;;15.12;50.47;102052.56;1744712;82;21561;-47
2021/04/17 06:06:43;;;;;;;7.03;6.33;;;;;;;15.45;49.82;102042.73;1738143;82;21569;-54
2021/04/17 06:09:11;;;;;;;8.18;6.35;;;;;;;15.74;48.94;102048.20;1739052;82;21141;-51
2021/04/17 06:11:41;;;;;;;9.63;7.05;;;;;;;16.00;48.04;102048.45;1734951;82;21294;-48
2021/04/17 06:14:08;;;;;;;7.90;5.67;;;;;;;16.26;47.85;102047.37;1736507;82;21152;-48
2021/04/17 06:16:37;;;;;;;6.45;5.78;;;;;;;16.59;47.08;102056.20;1736081;81;21145;-49
2021/04/17 06:19:07;;;;;;;7.20;5.83;;;;;;;16.93;46.25;102049.60;1738664;82;21152;-49
2021/04/17 06:21:35;;;;;;;7.00;6.30;;;;;;;17.18;45.42;102055.91;1738835;82;21181;-48
2021/04/17 06:24:05;;;;;;;8.50;5.35;;;;;;;17.41;44.48;102052.17;1737578;82;21129;-49
2021/04/17 06:26:33;;;;;;;6.47;5.37;;;;;;;17.51;43.84;102052.34;1740542;82;21144;-48
2021/04/17 06:29:01;;;;;;;6.60;6.00;;;;;;;17.49;43.22;102055.88;1736274;82;21172;-52
2021/04/17 06:31:30;;;;;;;6.35;5.75;;;;;;;17.38;43.33;102057.50;1750300;82;21393;-52
2021/04/17 06:33:58;;;;;;;9.13;6.10;;;;;;;17.19;43.22;102061.56;1735280;82;21576;-53
2021/04/17 06:36:26;;;;;;;7.05;6.10;;;;;;;16.94;43.57;102064.45;1736048;82;21651;-50
2021/04/17 06:38:54;;;;;;;6.22;5.62;;;;;;;16.60;43.95;102062.33;1726688;82;21152;-48
2021/04/17 06:41:22;;;;;;;6.72;6.12;;;;;;;16.25;44.42;102066.67;1731046;82;21163;-47
2021/04/17 06:43:51;;;;;;;6.65;6.00;;;;;;;15.92;44.94;102068.78;1736573;82;21136;-49
2021/04/17 06:46:19;;;;;;;7.90;6.22;;;;;;;15.61;45.71;102069.48;1728830;82;21129;-50
2021/04/17 06:48:48;;;;;;;7.45;6.72;;;;;;;15.34;46.37;102072.20;1739588;82;21579;-52
2021/04/17 06:51:18;;;;;;;9.30;6.62;;;;;;;15.10;46.98;102076.64;1743827;82;21557;-47
2021/04/17 06:53:46;;;;;;;8.28;6.67;;;;;;;14.89;47.60;102065.23;1743214;82;21176;-47
2021/04/17 06:56:14;;;;;;;7.58;6.80;;;;;;;14.75;48.46;102077.30;1741055;82;21155;-50
2021/04/17 06:58:42;;;;;;;8.43;6.55;;;;;;;14.66;49.10;102077.02;1732844;82;21590;-49
2021/04/17 07:01:11;;;;;;;7.17;6.47;;;;;;;14.63;49.71;102072.28;1725641;82;21307;-50
2021/04/17 07:03:40;;;;;;;9.20;6.62;;;;;;;14.66;49.86;102073.08;1732224;82;21128;-50
2021/04/17 07:06:08;;;;;;;6.67;6.08;;;;;;;14.76;49.81;102076.39;1730849;82;21289;-53
2021/04/17 07:08:39;;;;;;;7.53;6.42;;;;;;;14.92;48.67;102076.98;1736067;81;21152;-49
2021/04/17 07:11:08;;;;;;;6.97;6.33;;;;;;;15.08;49.03;102079.30;1730749;82;21192;-48
2021/04/17 07:13:38;;;;;;;8.18;6.60;;;;;;;15.26;48.78;102078.05;1739804;82;21140;-52
2021/04/17 07:16:10;;;;;;;10.48;8.65;;;;;;;15.45;48.22;102082.08;1736076;81;21565;-50
2021/04/17 07:18:39;;;;;;;7.97;7.17;;;;;;;15.71;47.67;102086.75;1727994;82;21266;-51
2021/04/17 07:21:18;;;;;;;7.30;6.45;;;;;;;15.99;46.70;102081.32;1731131;82;21145;-51
2021/04/17 07:23:47;;;;;;;6.22;5.65;;;;;;;16.26;46.02;102077.58;1738137;82;21156;-47
2021/04/17 07:26:28;;;;;;;6.58;5.97;;;;;;;16.56;44.97;102083.88;1730958;81;21624;-49
2021/04/17 07:29:15;;;;;;;6.60;6.00;;;;;;;16.84;44.58;102084.02;1738353;82;21278;-46
2021/04/17 07:31:54;;;;;;;8.50;6.00;;;;;;;17.04;44.17;102083.89;1745154;82;21191;-51
2021/04/17 07:34:24;;;;;;;7.95;5.58;;;;;;;17.18;43.85;102083.53;1734979;82;21136;-48
2021/04/17 07:36:57;;;;;;;8.93;6.08;;;;;;;17.22;42.95;102081.66;1728139;82;21172;-49
2021/04/17 07:39:39;;;;;;;7.00;5.97;;;;;;;17.14;43.07;102091.09;1737472;82;21569;-48
2021/04/17 07:42:13;;;;;;;7.33;6.62;;;;;;;16.98;42.88;102088.00;1734382;82;21214;-50
2021/04/17 07:44:44;;;;;;;19.85;8.83;;;;;;;16.81;42.93;102086.74;1733600;80;21192;-47
2021/04/17 07:47:31;;;;;;;19.77;9.25;;;;;;;16.63;43.21;102088.54;1738608;82;21156;-47
2021/04/17 07:50:08;;;;;;;15.08;8.25;;;;;;;16.47;44.18;102085.83;1742858;82;21566;-49
2021/04/17 07:52:36;;;;;;;12.07;7.12;;;;;;;16.32;44.96;102080.97;1734517;82;21176;-45
2021/04/17 07:55:11;;;;;;;10.80;7.03;;;;;;;16.22;45.56;102077.68;1737918;82;21326;-49
2021/04/17 07:57:45;;;;;;;6.92;6.20;;;;;;;16.17;45.70;102085.70;1729000;82;21160;-48
2021/04/17 08:00:16;;;;;;;6.80;6.10;;;;;;;16.13;46.27;102082.73;1743183;82;21144;-46
2021/04/17 08:02:47;;;;;;;6.43;5.63;;;;;;;16.10;46.11;102081.92;1727044;82;21175;-47
2021/04/17 08:05:16;;;;;;;6.97;6.37;;;;;;;16.04;45.79;102080.31;1718451;82;21599;-51
2021/04/17 08:07:44;;;;;;;5.85;5.35;;;;;;;16.01;45.99;102083.46;1730795;82;21124;-45
2021/04/17 08:10:13;;;;;;;6.12;5.53;;;;;;;15.98;46.15;102087.02;1668202;85;21132;-45
2021/04/17 08:12:42;;;;;;;6.37;5.78;;;;;;;15.97;46.56;102083.95;1726600;82;21145;-46
2021/04/17 08:15:14;;;;;;;6.70;6.10;;;;;;;15.98;46.53;102087.02;1738337;82;21191;-49
2021/04/17 08:17:43;;;;;;;7.78;5.72;;;;;;;16.00;46.96;102085.66;1739321;82;21668;-46
2021/04/17 08:20:15;;;;;;;5.90;5.28;;;;;;;15.99;46.94;102071.66;1726319;82;21228;-46
2021/04/17 08:22:50;;;;;;;6.03;5.53;;;;;;;15.99;46.82;102078.22;1731763;82;21599;-47
2021/04/17 08:25:20;;;;;;;5.87;5.37;;;;;;;16.01;46.97;102074.27;1670530;84;21197;-51
2021/04/17 08:27:50;;;;;;;6.28;5.65;;;;;;;16.04;46.56;102069.80;1658409;85;21206;-50
2021/04/17 08:30:28;;;;;;;5.87;5.28;;;;;;;16.06;45.98;102069.31;1659725;85;21218;-52
2021/04/17 08:33:16;;;;;;;5.80;5.20;;;;;;;16.06;46.10;102068.00;1665164;85;21228;-49
2021/04/17 08:35:50;;;;;;;5.67;5.17;;;;;;;16.10;46.27;102063.09;1774953;79;23134;-49
2021/04/17 08:38:18;;;;;;;6.05;5.45;;;;;;;16.06;46.12;102076.33;1731656;82;21918;-45
2021/04/17 08:40:50;;;;;;;5.97;5.37;;;;;;;16.03;46.15;102072.00;1734839;82;21291;-52
2021/04/17 08:43:25;;;;;;;8.30;4.92;;;;;;;16.00;46.13;102066.84;1729414;82;21704;-50
2021/04/17 08:46:14;;;;;;;5.85;4.83;;;;;;;16.01;46.05;102068.55;1735198;82;21169;-47
2021/04/17 08:48:56;;;;;;;5.40;4.85;;;;;;;16.00;46.15;102065.52;1668754;85;21171;-45
2021/04/17 08:51:28;;;;;;;5.50;4.47;;;;;;;16.04;45.94;102063.23;1692173;84;21179;-45
2021/04/17 08:54:12;;;;;;;6.03;5.22;;;;;;;16.07;45.73;102068.41;1715107;83;21149;-53
2021/04/17 08:56:56;;;;;;;5.42;4.87;;;;;;;16.13;46.38;102052.53;1771414;79;23090;-49
2021/04/17 08:59:34;;;;;;;5.70;5.20;;;;;;;16.10;47.08;102062.22;1730877;82;21152;-47
2021/04/17 09:02:14;;;;;;;5.87;5.37;;;;;;;16.16;47.52;102055.06;1816006;78;23048;-49
2021/04/17 09:05:08;;;;;;;8.43;5.30;;;;;;;16.12;47.81;102063.92;1782824;80;21160;-47
2021/04/17 09:07:41;;;;;;;5.60;5.17;;;;;;;16.14;48.21;102059.49;1773451;79;21132;-47
2021/04/17 09:10:34;;;;;;;5.40;4.90;;;;;;;16.26;48.12;102060.95;1777122;80;21669;-51
2021/04/17 09:13:19;;;;;;;6.70;6.03;;;;;;;16.32;48.33;102057.33;1777035;80;21708;-50
2021/04/17 09:15:56;;;;;;;6.17;5.42;;;;;;;16.38;48.22;102058.05;1787837;79;21706;-50
2021/04/17 09:18:40;;;;;;;6.10;5.50;;;;;;;16.45;47.98;102061.36;1779986;80;21168;-49
2021/04/17 09:21:24;;;;;;;5.58;5.08;;;;;;;16.47;47.82;102059.55;1791089;79;21275;-47
2021/04/17 09:23:53;;;;;;;4.83;4.33;;;;;;;16.48;48.28;102048.16;1780390;79;21306;-49
2021/04/17 09:26:34;;;;;;;5.35;4.30;;;;;;;16.44;48.36;102047.38;1710371;83;21278;-47
2021/04/17 09:29:23;;;;;;;4.47;4.05;;;;;;;16.48;47.83;102048.16;1717364;83;21144;-47
2021/04/17 09:31:52;;;;;;;5.53;4.53;;;;;;;16.51;47.72;102048.09;1708612;82;21270;-51
2021/04/17 09:34:20;;;;;;;4.87;4.37;;;;;;;16.51;48.10;102048.97;1751744;81;21127;-51
2021/04/17 09:36:50;;;;;;;4.87;4.47;;;;;;;16.54;47.57;102041.02;1730116;81;21142;-51
2021/04/17 09:39:28;;;;;;;4.37;3.95;;;;;;;16.59;47.18;102042.22;1719079;83;21287;-47
2021/04/17 09:41:59;;;;;;;3.70;3.40;;;;;;;16.61;47.39;102036.47;1713656;83;21159;-50
2021/04/17 09:44:41;;;;;;;4.47;4.08;;;;;;;16.65;47.13;102036.80;1713536;82;21160;-50
2021/04/17 09:47:11;;;;;;;4.70;4.30;;;;;;;16.66;47.20;102026.68;1728324;82;21165;-48
2021/04/17 09:49:45;;;;;;;4.75;4.30;;;;;;;16.67;46.66;102020.53;1726068;82;21688;-50
2021/04/17 09:52:18;;;;;;;4.80;4.30;;;;;;;16.65;47.27;102024.97;1725081;82;21130;-49
2021/04/17 09:54:44;;;;;;;4.40;3.83;;;;;;;16.67;47.36;102025.31;1712666;82;21592;-46
2021/04/17 09:57:12;;;;;;;5.42;4.17;;;;;;;16.67;47.42;102024.48;1721777;82;21118;-46
2021/04/17 09:59:55;;;;;;;5.42;4.85;;;;;;;16.65;47.67;102023.18;1708350;82;21581;-49
2021/04/17 10:02:28;;;;;;;4.95;4.45;;;;;;;16.66;47.78;102024.05;1693320;83;21192;-50
2021/04/17 10:05:00;;;;;;;5.00;4.50;;;;;;;16.70;47.94;102012.55;1618048;87;21826;-47
2021/04/17 10:07:28;;;;;;;6.65;4.05;;;;;;;16.73;48.18;102011.17;1624708;87;21192;-47
2021/04/17 10:10:05;;;;;;;4.67;4.22;;;;;;;16.71;47.91;102014.30;1615291;87;21235;-46
2021/04/17 10:12:32;;;;;;;4.95;4.42;;;;;;;16.73;48.07;102018.58;1662234;85;21155;-48
2021/04/17 10:15:18;;;;;;;5.72;4.65;;;;;;;16.77;47.99;102012.81;1638164;85;21345;-48
2021/04/17 10:17:50;;;;;;;5.78;4.67;;;;;;;16.80;48.52;102014.02;1665589;85;21216;-48
2021/04/17 10:20:19;;;;;;;6.05;4.03;;;;;;;16.85;48.25;102013.46;1661947;84;21199;-46
2021/04/17 10:22:59;;;;;;;4.47;4.08;;;;;;;16.89;48.05;102009.84;1660149;83;21171;-48
2021/04/17 10:25:41;;;;;;;4.47;3.95;;;;;;;16.90;47.71;102006.29;1672793;84;21156;-47
2021/04/17 10:28:25;;;;;;;3.87;3.58;;;;;;;16.96;47.50;101996.95;1765218;79;24276;-49
2021/04/17 10:30:56;;;;;;;4.25;3.85;;;;;;;16.92;47.21;102000.53;1729764;82;21585;-49
2021/04/17 10:33:29;;;;;;;4.33;3.50;;;;;;;16.94;46.99;102001.35;1742417;82;21136;-50
2021/04/17 10:35:59;;;;;;;6.08;3.70;;;;;;;16.93;46.94;101995.70;1733415;82;21171;-50
2021/04/17 10:38:33;;;;;;;3.40;3.10;;;;;;;16.90;47.27;101995.33;1665565;85;21148;-48
2021/04/17 10:41:03;;;;;;;3.30;3.00;;;;;;;16.88;47.37;101994.51;1607472;86;21227;-49
2021/04/17 10:43:31;;;;;;;3.10;2.90;;;;;;;16.87;47.50;101995.44;1622998;86;21233;-49
2021/04/17 10:46:04;;;;;;;3.85;3.27;;;;;;;16.89;47.78;101999.33;1630192;86;21726;-49
2021/04/17 10:48:46;;;;;;;4.62;3.67;;;;;;;16.96;47.71;101989.05;1765336;79;23074;-52
2021/04/17 10:51:16;;;;;;;3.90;3.27;;;;;;;16.97;47.55;101994.70;1741941;82;21136;-52
2021/04/17 10:53:47;;;;;;;4.10;3.25;;;;;;;17.00;47.73;101986.75;1730005;82;21168;-49
2021/04/17 10:56:19;;;;;;;3.30;3.02;;;;;;;17.04;47.15;101992.33;1740834;82;21140;-48
2021/04/17 10:59:04;;;;;;;4.60;3.50;;;;;;;17.09;47.16;101993.04;1762174;79;23041;-50
2021/04/17 11:01:38;;;;;;;3.10;2.80;;;;;;;17.07;47.50;101997.48;1740899;82;21169;-50
2021/04/17 11:04:06;;;;;;;4.35;3.40;;;;;;;17.11;47.46;101987.28;1735458;82;21581;-50
2021/04/17 11:06:37;;;;;;;3.80;3.45;;;;;;;17.16;47.26;101991.97;1679051;84;21290;-48
2021/04/17 11:09:19;;;;;;;3.47;3.17;;;;;;;17.20;47.61;101994.05;1699566;83;21125;-50
2021/04/17 11:14:35;;;;;;;3.60;3.30;;;;;;;17.33;47.85;101987.05;1795056;79;22666;-50
2021/04/17 11:17:12;;;;;;;3.30;3.00;;;;;;;17.32;47.84;101992.36;1773473;80;21307;-47
2021/04/17 11:19:44;;;;;;;3.90;3.60;;;;;;;17.31;48.19;101984.91;1784808;80;21159;-49
2021/04/17 11:22:21;;;;;;;;;;;;;;;17.31;48.45;101988.86;1781066;80;21156;-45
2021/04/17 11:25:02;;;;;;;16.73;5.03;;;;;;;17.35;48.57;101982.59;1772532;80;20419;-52
2021/04/17 11:27:31;;;;;;;;;;;;;;;17.42;48.60;101984.59;1683023;85;21161;-48
2021/04/17 11:29:59;;;;;;;12.65;3.58;;;;;;;17.48;48.46;101983.96;1671006;85;20201;-51
2021/04/17 11:32:27;;;;;;;3.90;3.40;;;;;;;17.50;48.44;101978.23;1677955;85;21668;-47
2021/04/17 11:34:56;;;;;;;4.75;3.60;;;;;;;17.49;48.58;101985.73;1683975;85;21680;-49
2021/04/17 11:37:29;;;;;;;3.98;3.60;;;;;;;17.44;48.70;101984.97;1673386;85;21167;-51
2021/04/17 11:39:54;;;;;;;4.17;3.75;;;;;;;17.43;48.88;101991.15;1682184;85;21323;-51
2021/04/17 11:42:22;;;;;;;3.95;3.55;;;;;;;17.44;48.87;101983.64;1685571;85;21199;-45
2021/04/17 11:44:52;;;;;;;5.37;3.90;;;;;;;17.46;48.90;101981.83;1688155;83;21181;-46
2021/04/17 11:47:19;;;;;;;3.83;3.50;;;;;;;17.44;48.89;101981.02;1682332;85;21157;-46